createdAt,value
2022-12-20T00:01:17.441Z,0.90
2022-12-20T00:03:46.666Z,0.80
2022-12-20T00:06:13.287Z,0.90
2022-12-20T00:08:39.784Z,1.10
2022-12-20T00:11:08.175Z,0.88
2022-12-20T00:13:34.753Z,1.00
2022-12-20T00:16:05.599Z,0.93
2022-12-20T00:21:02.119Z,0.68
2022-12-20T00:23:29.898Z,1.00
2022-12-20T00:26:13.152Z,0.70
2022-12-20T00:28:40.713Z,0.80
2022-12-20T00:31:08.345Z,0.77
2022-12-20T00:33:35.985Z,0.85
2022-12-20T00:36:02.454Z,1.00
2022-12-20T00:38:28.983Z,0.77
2022-12-20T00:41:12.106Z,1.15
2022-12-20T00:43:39.151Z,1.00
2022-12-20T00:46:06.864Z,0.70
2022-12-20T00:48:33.594Z,0.80
2022-12-20T00:51:02.775Z,0.73
2022-12-20T00:53:29.364Z,0.50
2022-12-20T00:55:56.270Z,0.70
2022-12-20T00:58:22.868Z,1.00
2022-12-20T01:00:55.744Z,0.80
2022-12-20T01:03:23.302Z,0.60
2022-12-20T01:05:51.278Z,0.50
2022-12-20T01:08:17.718Z,0.65
2022-12-20T01:10:44.217Z,0.80
2022-12-20T01:13:11.055Z,0.70
2022-12-20T01:16:05.510Z,0.65
2022-12-20T01:18:32.731Z,0.65
2022-12-20T01:21:10.401Z,0.63
2022-12-20T01:23:37.318Z,0.60
2022-12-20T01:26:05.053Z,1.00
2022-12-20T01:28:32.213Z,1.10
2022-12-20T01:30:58.671Z,0.75
2022-12-20T01:33:25.221Z,0.65
2022-12-20T01:35:55.870Z,0.73
2022-12-20T01:38:22.613Z,0.82
2022-12-20T01:40:49.068Z,0.70
2022-12-20T01:43:17.724Z,0.60
2022-12-20T01:45:44.395Z,0.65
2022-12-20T01:48:11.297Z,0.85
2022-12-20T01:50:38.655Z,0.60
2022-12-20T01:53:05.607Z,1.00
2022-12-20T01:55:35.318Z,0.98
2022-12-20T01:58:03.541Z,0.82
2022-12-20T02:00:30.487Z,0.70
2022-12-20T02:03:00.854Z,0.82
2022-12-20T02:05:27.649Z,1.00
2022-12-20T02:07:55.390Z,1.30
2022-12-20T02:10:24.067Z,1.15
2022-12-20T02:12:52.773Z,1.30
2022-12-20T02:15:28.302Z,1.48
2022-12-20T02:18:17.535Z,1.45
2022-12-20T02:21:04.000Z,1.20
2022-12-20T02:23:59.338Z,1.20
2022-12-20T02:26:44.629Z,1.30
2022-12-20T02:29:20.970Z,1.40
2022-12-20T02:31:55.451Z,1.23
2022-12-20T02:34:25.131Z,1.35
2022-12-20T02:36:52.060Z,1.23
2022-12-20T02:39:18.685Z,1.05
2022-12-20T02:41:53.090Z,1.25
2022-12-20T02:44:39.710Z,1.38
2022-12-20T02:47:12.617Z,1.20
2022-12-20T02:49:41.400Z,1.00
2022-12-20T02:52:09.379Z,0.85
2022-12-20T02:54:37.130Z,0.65
2022-12-20T02:57:18.817Z,0.93
2022-12-20T02:59:50.100Z,0.70
2022-12-20T03:02:17.382Z,0.90
2022-12-20T03:04:44.191Z,0.93
2022-12-20T03:07:12.086Z,0.90
2022-12-20T03:09:39.837Z,0.47
2022-12-20T03:12:07.289Z,0.70
2022-12-20T03:14:33.767Z,0.50
2022-12-20T03:17:00.415Z,0.50
2022-12-20T03:19:27.058Z,0.57
2022-12-20T03:21:53.603Z,0.70
2022-12-20T03:24:23.325Z,0.57
2022-12-20T03:26:49.950Z,0.60
2022-12-20T03:29:16.591Z,0.57
2022-12-20T03:31:43.275Z,0.55
2022-12-20T03:34:09.873Z,0.60
2022-12-20T03:36:36.393Z,0.77
2022-12-20T03:39:19.234Z,0.65
2022-12-20T03:41:45.802Z,0.65
2022-12-20T03:44:12.359Z,0.95
2022-12-20T03:46:38.909Z,0.63
2022-12-20T03:49:05.494Z,0.80
2022-12-20T03:51:32.121Z,0.85
2022-12-20T03:53:58.730Z,0.80
2022-12-20T03:56:25.343Z,0.73
2022-12-20T03:58:51.825Z,0.77
2022-12-20T04:01:22.971Z,0.82
2022-12-20T04:03:49.737Z,0.80
2022-12-20T04:10:14.173Z,0.70
2022-12-20T04:16:44.304Z,0.57
2022-12-20T04:26:13.546Z,1.10
2022-12-20T04:28:40.098Z,1.52
2022-12-20T04:31:06.740Z,1.10
2022-12-20T04:37:07.344Z,0.90
2022-12-20T04:39:56.636Z,1.10
2022-12-20T04:42:23.333Z,1.30
2022-12-20T04:44:49.873Z,1.40
2022-12-20T04:57:55.396Z,2.22
2022-12-20T05:07:32.593Z,1.75
2022-12-20T05:13:46.863Z,1.50
2022-12-20T05:19:52.417Z,1.60
2022-12-20T05:36:23.472Z,1.95
2022-12-20T06:41:35.470Z,4.47
2022-12-20T06:44:01.960Z,5.40
2022-12-20T06:46:29.535Z,5.85
2022-12-20T06:48:56.570Z,6.80
2022-12-20T06:51:23.148Z,7.85
2022-12-20T06:53:50.758Z,9.18
2022-12-20T07:01:40.586Z,9.77
2022-12-20T07:06:48.466Z,11.70
2022-12-20T07:18:30.874Z,10.63
2022-12-20T07:21:01.551Z,13.40
2022-12-20T07:23:28.700Z,12.70
2022-12-20T07:25:56.344Z,11.15
2022-12-20T07:28:24.089Z,13.25
2022-12-20T07:30:53.303Z,14.20
2022-12-20T07:33:20.032Z,12.55
2022-12-20T07:35:50.948Z,15.70
2022-12-20T07:38:21.047Z,14.73
2022-12-20T07:40:48.605Z,15.90
2022-12-20T07:43:15.139Z,15.10
2022-12-20T07:45:41.645Z,15.80
2022-12-20T07:48:12.527Z,15.27
2022-12-20T07:50:41.988Z,14.65
2022-12-20T07:53:09.652Z,16.52
2022-12-20T07:55:37.193Z,17.25
2022-12-20T07:58:08.200Z,14.55
2022-12-20T08:00:34.756Z,16.17
2022-12-20T08:03:01.532Z,16.35
2022-12-20T08:05:28.972Z,17.45
2022-12-20T08:07:59.259Z,16.85
2022-12-20T08:10:26.853Z,18.55
2022-12-20T08:12:53.482Z,14.30
2022-12-20T08:15:22.503Z,15.98
2022-12-20T08:17:49.866Z,17.90
2022-12-20T08:20:16.678Z,17.88
2022-12-20T08:22:43.368Z,17.00
2022-12-20T08:25:10.069Z,16.52
2022-12-20T08:27:36.836Z,17.05
2022-12-20T08:30:13.610Z,18.42
2022-12-20T08:32:40.134Z,18.38
2022-12-20T08:35:07.067Z,16.42
2022-12-20T08:37:35.155Z,17.45
2022-12-20T08:40:01.974Z,16.63
2022-12-20T08:42:29.196Z,14.57
2022-12-20T08:44:55.819Z,16.95
2022-12-20T08:47:22.578Z,15.15
2022-12-20T08:49:49.588Z,17.77
2022-12-20T08:52:16.205Z,19.08
2022-12-20T08:54:45.273Z,16.38
2022-12-20T08:57:11.962Z,17.05
2022-12-20T08:59:43.598Z,19.50
2022-12-20T09:02:10.923Z,18.42
2022-12-20T09:04:38.317Z,20.23
2022-12-20T09:07:07.833Z,16.88
2022-12-20T09:09:34.547Z,27.10
2022-12-20T09:14:42.699Z,17.08
2022-12-20T09:17:09.533Z,18.20
2022-12-20T09:19:37.234Z,16.95
2022-12-20T09:38:29.580Z,15.98
2022-12-20T09:55:00.689Z,12.98
2022-12-20T10:08:54.432Z,8.73
2022-12-20T10:28:35.141Z,7.13
2022-12-20T10:31:06.818Z,8.00
2022-12-20T10:33:33.542Z,7.53
2022-12-20T10:36:26.127Z,6.85
2022-12-20T10:38:55.803Z,7.13
2022-12-20T10:41:27.681Z,6.63
2022-12-20T10:46:36.290Z,3.90
2022-12-20T10:49:21.479Z,5.32
2022-12-20T10:51:55.931Z,5.05
2022-12-20T10:54:31.006Z,5.72
2022-12-20T10:57:00.125Z,5.18
2022-12-20T11:02:33.268Z,4.20
2022-12-20T11:10:45.073Z,3.80
2022-12-20T11:13:24.485Z,3.70
2022-12-20T11:18:53.927Z,3.83
2022-12-20T11:21:33.054Z,3.22
2022-12-20T11:26:53.529Z,3.17
2022-12-20T11:29:20.062Z,3.20
2022-12-20T11:32:05.363Z,2.65
2022-12-20T11:34:38.268Z,3.00
2022-12-20T11:37:05.319Z,2.30
2022-12-20T11:39:49.277Z,2.80
2022-12-20T11:42:24.963Z,2.20
2022-12-20T11:45:08.458Z,2.25
2022-12-20T11:47:36.311Z,2.00
2022-12-20T11:55:45.419Z,1.83
2022-12-20T11:58:20.928Z,2.03
2022-12-20T12:00:54.185Z,2.28
2022-12-20T12:03:28.684Z,2.10
2022-12-20T12:08:44.232Z,2.20
2022-12-20T12:12:04.552Z,1.80
2022-12-20T12:14:06.240Z,1.92
2022-12-20T12:16:40.073Z,1.55
2022-12-20T12:19:10.054Z,1.52
2022-12-20T12:21:39.894Z,1.33
2022-12-20T12:24:22.528Z,1.35
2022-12-20T12:26:51.848Z,1.20
2022-12-20T12:29:20.179Z,1.25
2022-12-20T12:31:55.649Z,1.20
2022-12-20T12:34:22.266Z,1.10
2022-12-20T12:36:51.845Z,1.20
2022-12-20T12:39:39.139Z,1.50
2022-12-20T12:42:08.905Z,1.10
2022-12-20T12:44:49.958Z,0.90
2022-12-20T12:49:49.473Z,0.90
2022-12-20T12:52:41.692Z,1.05
2022-12-20T12:55:26.746Z,1.30
2022-12-20T12:57:57.557Z,1.17
2022-12-20T13:00:42.974Z,1.20
2022-12-20T13:08:51.119Z,1.20
2022-12-20T13:11:30.084Z,1.45
2022-12-20T13:47:56.500Z,2.17
2022-12-20T13:50:33.915Z,1.50
2022-12-20T13:53:02.485Z,1.80
2022-12-20T13:55:40.092Z,1.55
2022-12-20T13:58:07.909Z,1.60
2022-12-20T14:00:38.475Z,1.98
2022-12-20T14:03:05.240Z,1.60
2022-12-20T14:05:33.307Z,1.40
2022-12-20T14:08:01.891Z,2.55
2022-12-20T14:10:29.485Z,1.10
2022-12-20T14:12:56.155Z,1.40
2022-12-20T14:15:23.808Z,1.27
2022-12-20T14:17:50.580Z,1.42
2022-12-20T14:20:18.223Z,1.50
2022-12-20T14:22:53.274Z,1.48
2022-12-20T14:25:26.028Z,1.90
2022-12-20T14:27:52.924Z,1.50
2022-12-20T14:30:29.026Z,1.23
2022-12-20T14:32:57.458Z,1.20
2022-12-20T14:35:26.877Z,1.27
2022-12-20T14:38:05.440Z,1.13
2022-12-20T14:40:32.582Z,1.27
2022-12-20T14:46:14.311Z,1.40
2022-12-20T14:57:12.515Z,1.13
2022-12-20T15:13:39.970Z,1.33
2022-12-20T17:30:48.297Z,13.02
2022-12-20T19:25:08.198Z,5.53
2022-12-20T19:45:10.622Z,7.65
2022-12-20T20:15:33.018Z,5.50
2022-12-20T20:18:08.358Z,6.00
2022-12-20T20:20:36.507Z,5.70
2022-12-20T22:31:17.606Z,1.88
2022-12-20T22:39:06.335Z,2.05
2022-12-20T22:41:38.740Z,1.92
2022-12-20T22:54:57.320Z,1.60
2022-12-20T23:25:45.347Z,2.15
2022-12-20T23:33:35.694Z,1.95
2022-12-20T23:36:04.178Z,2.00
